Time;durP1;ratioP1;P1;durP2;ratioP2;P2;SDS_P1;SDS_P2;PMS_P1;PMS_P2;Temp;Humidity;BMP_temperature;BMP_pressure;BME280_temperature;BME280_humidity;BME280_pressure;Samples;Min_cycle;Max_cycle;Signal;HPM_P1;HPM_P2
2022/01/16 00:01:15;;;;;;;;;65.25;46.75;;;;;1.66;68.58;101851.00;5097780;27;45358;-62
2022/01/16 00:04:14;;;;;;;;;64.75;46.50;;;;;1.69;68.13;101837.97;5097636;27;45412;-63
2022/01/16 00:06:33;;;;;;;;;63.50;47.75;;;;;1.69;68.32;101843.16;5095246;27;46143;-62
2022/01/16 00:08:59;;;;;;;;;65.00;45.75;;;;;1.72;68.35;101838.75;5097492;27;45907;-63
2022/01/16 00:11:25;;;;;;;;;67.00;46.00;;;;;1.76;68.17;101827.38;5095827;27;45291;-61
2022/01/16 00:13:51;;;;;;;;;66.00;48.25;;;;;1.81;68.07;101837.59;5082126;27;45642;-63
2022/01/16 00:16:17;;;;;;;;;66.00;49.25;;;;;1.85;68.14;101849.56;5095260;27;46776;-63
2022/01/16 00:18:49;;;;;;;;;64.75;46.50;;;;;1.88;67.71;101866.75;5107618;27;45810;-62
2022/01/16 00:21:37;;;;;;;;;64.00;45.25;;;;;1.87;67.46;101855.56;5098832;27;45707;-62
2022/01/16 00:24:03;;;;;;;;;58.75;44.75;;;;;1.87;67.29;101834.81;5097301;27;45389;-62
2022/01/16 00:26:28;;;;;;;;;60.00;42.50;;;;;1.88;67.41;101838.25;5096898;27;46502;-63
2022/01/16 00:28:54;;;;;;;;;61.00;42.50;;;;;1.88;67.06;101846.88;5078114;27;45496;-62
2022/01/16 00:31:21;;;;;;;;;64.50;46.25;;;;;1.87;67.33;101871.09;5096113;27;65285;-64
2022/01/16 00:33:46;;;;;;;;;64.75;47.50;;;;;1.88;67.16;101878.00;5069338;27;45652;-62
2022/01/16 00:36:14;;;;;;;;;61.75;46.25;;;;;1.87;67.09;101878.88;5096640;27;45333;-62
2022/01/16 00:38:40;;;;;;;;;62.00;44.75;;;;;1.87;67.11;101878.88;5079454;27;45442;-62
2022/01/16 00:41:06;;;;;;;;;72.00;45.75;;;;;1.87;67.08;101842.59;5098080;27;45312;-62
2022/01/16 00:43:31;;;;;;;;;60.75;46.50;;;;;1.88;66.91;101827.88;5079135;27;45573;-61
2022/01/16 00:45:56;;;;;;;;;60.00;46.75;;;;;1.85;66.74;101833.19;5078836;27;68834;-63
2022/01/16 00:48:22;;;;;;;;;67.25;46.00;;;;;1.83;67.06;101838.41;5062043;27;64825;-62
2022/01/16 00:50:47;;;;;;;;;64.50;47.00;;;;;1.80;66.85;101861.81;5097844;27;46005;-62
2022/01/16 00:53:13;;;;;;;;;64.75;45.50;;;;;1.78;67.03;101868.78;5079823;27;45208;-62
2022/01/16 00:55:38;;;;;;;;;64.75;48.75;;;;;1.74;67.21;101878.41;5097777;27;46017;-62
2022/01/16 00:58:04;;;;;;;;;66.75;48.50;;;;;1.73;66.90;101881.03;5062710;27;45365;-65
2022/01/16 01:00:32;;;;;;;;;63.50;48.00;;;;;1.70;67.11;101881.13;5097719;27;45470;-63
2022/01/16 01:02:58;;;;;;;;;64.25;43.50;;;;;1.70;67.16;101922.56;5097736;27;45544;-62
2022/01/16 01:05:23;;;;;;;;;64.00;45.50;;;;;1.70;67.39;101909.63;5062555;27;45462;-62
2022/01/16 01:07:48;;;;;;;;;70.75;45.00;;;;;1.71;67.43;101921.69;5096527;27;71632;-62
2022/01/16 01:10:14;;;;;;;;;58.00;42.25;;;;;1.72;67.35;101895.75;5097470;27;45811;-63
2022/01/16 01:12:53;;;;;;;;;68.75;49.75;;;;;1.72;67.20;101920.78;5079105;27;45497;-61
2022/01/16 01:15:20;;;;;;;;;61.25;46.00;;;;;1.70;67.01;101907.03;5097271;27;46401;-63
2022/01/16 01:17:47;;;;;;;;;66.75;46.25;;;;;1.70;67.03;101907.03;5079198;27;45505;-63
2022/01/16 01:20:16;;;;;;;;;57.75;43.00;;;;;1.70;67.19;101907.03;5097316;27;45329;-62
2022/01/16 01:22:42;;;;;;;;;67.75;45.00;;;;;1.73;67.03;101870.66;5079625;27;45253;-63
2022/01/16 01:25:08;;;;;;;;;63.00;45.00;;;;;1.73;67.32;101827.47;5062164;27;46377;-61
2022/01/16 01:27:34;;;;;;;;;61.00;42.00;;;;;1.78;66.99;101824.72;5078439;27;45764;-62
2022/01/16 01:30:06;;;;;;;;;88.25;66.75;;;;;1.80;67.42;101816.94;5097098;27;45331;-63
2022/01/16 01:32:33;;;;;;;;;66.25;47.75;;;;;1.81;67.12;101801.31;5097236;27;45442;-63
2022/01/16 01:34:59;;;;;;;;;67.00;47.50;;;;;1.80;67.07;101802.22;5078862;27;46340;-63
2022/01/16 01:37:24;;;;;;;;;65.75;48.75;;;;;1.78;67.00;101827.31;5097073;27;45454;-62
2022/01/16 01:39:50;;;;;;;;;72.25;48.00;;;;;1.80;67.05;101840.25;5077841;27;62021;-62
2022/01/16 01:42:16;;;;;;;;;65.50;50.25;;;;;1.79;67.08;101847.16;5096166;27;57485;-62
2022/01/16 01:52:54;;;;;;;;;65.75;45.25;;;;;1.82;66.67;101888.53;5096746;27;45327;-63
2022/01/16 01:55:20;;;;;;;;;70.25;52.00;;;;;1.84;67.01;101911.84;5096540;27;48331;-62
2022/01/16 01:57:45;;;;;;;;;65.25;47.00;;;;;1.88;66.76;101911.69;5078272;27;45405;-62
2022/01/16 02:00:17;;;;;;;;;71.50;49.25;;;;;1.89;66.84;101920.28;5095619;27;65931;-61
2022/01/16 02:05:17;;;;;;;;;65.25;44.50;;;;;1.88;66.62;101945.38;5096541;27;46137;-62
2022/01/16 02:07:42;;;;;;;;;64.50;46.50;;;;;1.87;66.50;101945.41;5077972;27;48528;-62
2022/01/16 02:10:08;;;;;;;;;71.00;47.50;;;;;1.92;66.74;101957.34;5095633;27;64495;-63
2022/01/16 02:12:36;;;;;;;;;71.00;49.50;;;;;1.97;66.37;101962.41;5078378;27;45522;-63
2022/01/16 02:15:27;;;;;;;;;72.00;50.00;;;;;1.98;66.14;101964.09;5078757;27;45468;-64
2022/01/16 02:29:05;;;;;;;;;59.00;45.25;;;;;2.11;65.82;101977.56;5096131;27;45877;-62
2022/01/16 02:31:31;;;;;;;;;68.25;46.75;;;;;2.12;65.93;101968.03;5096145;27;45310;-62
2022/01/16 02:36:49;;;;;;;;;66.00;41.75;;;;;2.16;65.96;101957.50;5096261;27;45879;-62
2022/01/16 02:39:16;;;;;;;;;63.25;47.00;;;;;2.19;65.46;101956.59;5096280;27;45727;-61
2022/01/16 02:41:42;;;;;;;;;69.00;48.50;;;;;2.20;65.68;101947.91;5078328;27;45513;-63
2022/01/16 02:44:19;;;;;;;;;57.75;45.50;;;;;2.25;65.44;101933.06;5078052;27;45327;-62
2022/01/16 02:46:45;;;;;;;;;72.25;50.50;;;;;2.26;65.47;101929.56;5062383;27;47636;-64
2022/01/16 02:49:23;;;;;;;;;62.50;46.25;;;;;2.26;65.17;101939.94;5095986;27;45197;-62
2022/01/16 02:51:50;;;;;;;;;63.25;47.00;;;;;2.27;65.20;101922.63;5078256;27;45379;-62
2022/01/16 02:54:16;;;;;;;;;78.50;56.00;;;;;2.28;65.52;101930.38;5077930;27;45584;-61
2022/01/16 02:56:43;;;;;;;;;68.50;46.50;;;;;2.31;65.40;101924.22;5077702;27;45424;-63
2022/01/16 02:59:12;;;;;;;;;66.50;49.25;;;;;2.29;65.05;101916.50;5077875;27;46447;-62
2022/01/16 03:01:37;;;;;;;;;67.25;48.75;;;;;2.30;65.36;101912.16;5080296;27;45410;-61
2022/01/16 03:04:03;;;;;;;;;66.00;47.75;;;;;2.31;65.60;101921.63;5099482;27;45540;-62
2022/01/16 03:06:28;;;;;;;;;63.25;45.50;;;;;2.32;65.48;101911.22;5080434;27;50580;-62
2022/01/16 03:08:54;;;;;;;;;63.50;44.00;;;;;2.35;65.27;101907.66;5099543;27;45452;-60
2022/01/16 03:11:35;;;;;;;;;67.75;44.25;;;;;2.35;65.34;101910.25;5099388;27;45455;-61
2022/01/16 03:14:04;;;;;;;;;65.75;46.75;;;;;2.36;65.21;101911.97;5099602;27;45383;-61
2022/01/16 03:16:29;;;;;;;;;66.00;48.00;;;;;2.37;65.09;101913.66;5081072;27;46414;-62
2022/01/16 03:21:54;;;;;;;;;68.75;46.50;;;;;2.40;65.18;101904.91;5084032;27;45470;-61
2022/01/16 03:24:21;;;;;;;;;65.50;42.75;;;;;2.38;64.84;101899.78;5099355;27;45442;-64
2022/01/16 03:26:46;;;;;;;;;64.00;48.25;;;;;2.39;64.86;101906.69;5081080;27;45406;-63
2022/01/16 03:29:12;;;;;;;;;60.25;42.25;;;;;2.39;65.07;101904.09;5099060;27;45269;-62
2022/01/16 03:31:37;;;;;;;;;64.75;44.75;;;;;2.37;65.15;101898.97;5098978;27;45541;-62
2022/01/16 03:34:02;;;;;;;;;68.25;48.25;;;;;2.40;64.92;101897.13;5080128;27;61391;-62
2022/01/16 03:36:28;;;;;;;;;68.00;47.00;;;;;2.38;65.28;101889.41;5080821;27;46079;-62
2022/01/16 03:38:53;;;;;;;;;64.00;46.25;;;;;2.37;65.08;101887.72;5080312;27;56235;-60
2022/01/16 03:41:19;;;;;;;;;65.25;45.75;;;;;2.36;65.30;101893.81;5099018;27;45291;-62
2022/01/16 03:43:44;;;;;;;;;63.00;45.00;;;;;2.35;65.17;101899.88;5099105;27;45319;-62
2022/01/16 03:46:09;;;;;;;;;63.00;44.75;;;;;2.35;65.41;101900.75;5097700;27;72080;-62
2022/01/16 03:48:35;;;;;;;;;62.75;48.25;;;;;2.35;65.21;101908.53;5080588;27;45331;-62
2022/01/16 03:51:00;;;;;;;;;64.25;47.00;;;;;2.36;65.18;101922.34;5080264;27;47407;-62
2022/01/16 03:53:26;;;;;;;;;60.75;41.00;;;;;2.37;65.11;101924.03;5098168;27;59143;-61
2022/01/16 03:55:51;;;;;;;;;60.00;45.25;;;;;2.36;65.23;101911.97;5098185;27;61029;-61
2022/01/16 03:58:16;;;;;;;;;66.00;48.50;;;;;2.35;65.57;101910.25;5098595;27;45335;-61
2022/01/16 04:00:42;;;;;;;;;68.50;47.50;;;;;2.32;65.29;101900.84;5097941;27;60555;-62
2022/01/16 04:03:07;;;;;;;;;65.00;44.25;;;;;2.32;65.53;101897.38;5080524;27;45306;-62
2022/01/16 04:05:32;;;;;;;;;62.50;42.25;;;;;2.29;65.56;101907.84;5079096;27;73491;-63
2022/01/16 04:07:59;;;;;;;;;71.00;49.50;;;;;2.27;65.63;101905.31;5097503;27;68907;-62
2022/01/16 04:10:25;;;;;;;;;66.25;46.00;;;;;2.26;65.97;101903.63;5098537;27;45231;-61
2022/01/16 04:12:50;;;;;;;;;71.25;46.50;;;;;2.25;65.63;101914.91;5062954;27;45245;-64
2022/01/16 04:17:42;;;;;;;;;64.25;45.50;;;;;2.25;66.00;101917.50;5098300;27;45346;-61
2022/01/16 04:20:08;;;;;;;;;65.25;45.00;;;;;2.22;65.85;101923.59;5098350;27;45457;-62
2022/01/16 04:22:33;;;;;;;;;59.75;42.50;;;;;2.20;66.18;101929.75;5079858;27;45612;-63
2022/01/16 04:24:59;;;;;;;;;64.50;42.00;;;;;2.18;66.52;101923.75;5098338;27;45386;-62
2022/01/16 04:27:24;;;;;;;;;60.75;43.00;;;;;2.18;66.56;101934.13;5097269;27;69634;-63
2022/01/16 04:29:49;;;;;;;;;65.50;46.50;;;;;2.17;66.40;101943.66;5097183;27;65332;-62
2022/01/16 04:32:15;;;;;;;;;67.25;44.00;;;;;2.17;66.16;101938.47;5097292;27;69341;-63
2022/01/16 04:34:40;;;;;;;;;65.50;46.25;;;;;2.14;66.50;101948.91;5097924;27;45968;-62
2022/01/16 04:37:05;;;;;;;;;60.25;43.75;;;;;2.15;66.58;101961.00;5079628;27;48819;-62
2022/01/16 04:39:33;;;;;;;;;64.75;47.00;;;;;2.15;66.54;101967.94;5098093;27;45299;-64
2022/01/16 04:44:43;;;;;;;;;52.00;39.25;;;;;2.15;66.56;101958.41;5082417;27;45760;-62
2022/01/16 04:47:08;;;;;;;;;64.75;46.50;;;;;2.14;66.86;101967.06;5078996;27;61309;-63
2022/01/16 04:49:34;;;;;;;;;56.50;42.50;;;;;2.14;67.04;101972.25;5097144;27;65513;-62
2022/01/16 04:51:59;;;;;;;;;60.75;42.50;;;;;2.17;67.19;101984.31;5097015;27;61976;-62
2022/01/16 04:54:27;;;;;;;;;65.75;45.25;;;;;2.18;66.87;101984.25;5078556;27;71823;-61
2022/01/16 04:56:53;;;;;;;;;65.75;44.75;;;;;2.17;67.08;101981.72;5097680;27;45691;-62
2022/01/16 04:59:18;;;;;;;;;64.25;48.00;;;;;2.17;67.21;101979.13;5079593;27;45263;-60
2022/01/16 05:01:44;;;;;;;;;54.75;39.50;;;;;2.17;66.86;101972.16;5097829;27;45331;-62
2022/01/16 05:04:10;;;;;;;;;61.75;42.25;;;;;2.17;67.25;101973.94;5096815;27;67495;-64
2022/01/16 05:06:35;;;;;;;;;56.00;41.50;;;;;2.16;67.11;101969.63;5079232;27;48760;-62
2022/01/16 05:09:00;;;;;;;;;62.25;45.75;;;;;2.16;67.07;101977.41;5097479;27;45575;-62
2022/01/16 05:11:27;;;;;;;;;66.50;48.00;;;;;2.15;67.00;101966.19;5096629;27;67264;-61
2022/01/16 05:16:37;;;;;;;;;60.25;44.25;;;;;2.18;67.11;101981.66;5097575;27;45355;-62
2022/01/16 05:19:11;;;;;;;;;64.25;40.50;;;;;2.21;66.99;101971.19;5079312;27;45426;-63
2022/01/16 05:21:36;;;;;;;;;60.75;41.50;;;;;2.23;66.76;101969.41;5079367;27;45592;-63
2022/01/16 05:24:06;;;;;;;;;68.75;45.75;;;;;2.20;66.73;101969.50;5096376;27;46322;-62
2022/01/16 05:26:31;;;;;;;;;63.50;44.75;;;;;2.20;66.50;101979.84;5062517;27;46147;-62
2022/01/16 05:28:57;;;;;;;;;58.75;42.25;;;;;2.20;66.62;101969.50;5097213;27;45270;-62
2022/01/16 05:31:22;;;;;;;;;61.25;44.25;;;;;2.17;67.02;101981.72;5097135;27;45277;-61
2022/01/16 05:33:48;;;;;;;;;65.25;45.75;;;;;2.17;66.71;102002.47;5096962;27;48402;-62
2022/01/16 05:36:13;;;;;;;;;61.75;45.25;;;;;2.17;66.58;102000.69;5062056;27;45666;-62
2022/01/16 05:38:39;;;;;;;;;57.50;41.75;;;;;2.19;66.47;102003.25;5096485;27;62665;-62
2022/01/16 05:41:04;;;;;;;;;58.00;44.50;;;;;2.16;66.76;102008.53;5096508;27;63157;-61
2022/01/16 05:43:29;;;;;;;;;60.75;46.00;;;;;2.16;66.45;102017.16;5096136;27;75755;-62
2022/01/16 05:45:55;;;;;;;;;61.75;46.00;;;;;2.15;66.76;102020.63;5096008;27;69583;-63
2022/01/16 05:48:20;;;;;;;;;66.25;48.75;;;;;2.15;66.73;102028.41;5096163;27;68109;-62
2022/01/16 05:50:46;;;;;;;;;71.00;46.00;;;;;2.16;66.38;102019.75;5096364;27;55677;-63
2022/01/16 05:53:11;;;;;;;;;65.00;46.25;;;;;2.15;66.60;102028.41;5095752;27;75282;-62
2022/01/16 05:55:36;;;;;;;;;62.25;46.00;;;;;2.11;66.81;102031.16;5096883;27;45464;-61
2022/01/16 05:58:06;;;;;;;;;69.00;45.00;;;;;2.10;66.93;102037.22;5078857;27;45392;-61
2022/01/16 06:00:31;;;;;;;;;65.75;46.50;;;;;2.08;66.85;102039.88;5078871;27;45251;-62
2022/01/16 06:02:57;;;;;;;;;65.50;46.75;;;;;2.08;67.09;102032.09;5078677;27;45409;-61
2022/01/16 06:05:22;;;;;;;;;64.00;47.00;;;;;2.07;66.78;102039.03;5078321;27;54228;-63
2022/01/16 06:07:53;;;;;;;;;67.00;44.50;;;;;2.06;67.01;102044.25;5096028;27;64940;-62
2022/01/16 06:10:19;;;;;;;;;64.75;43.25;;;;;2.04;67.04;102057.25;5097130;27;45477;-62
2022/01/16 06:12:44;;;;;;;;;62.50;46.25;;;;;2.02;67.22;102050.44;5078413;27;45345;-64
2022/01/16 06:15:09;;;;;;;;;66.75;48.00;;;;;2.02;67.08;102046.06;5078547;27;45415;-62
2022/01/16 06:17:35;;;;;;;;;67.25;48.75;;;;;2.01;67.10;102041.78;5077987;27;60694;-62
2022/01/16 06:20:00;;;;;;;;;71.25;49.50;;;;;1.99;67.37;102040.13;5096170;27;59853;-62
2022/01/16 06:22:26;;;;;;;;;64.25;43.00;;;;;1.99;67.71;102029.78;5078531;27;46178;-62
2022/01/16 06:24:51;;;;;;;;;66.75;46.00;;;;;1.96;67.59;102017.72;5096534;27;46032;-60
2022/01/16 06:27:16;;;;;;;;;64.75;46.25;;;;;1.93;67.58;102023.00;5095837;27;66143;-62
2022/01/16 06:29:42;;;;;;;;;72.75;47.25;;;;;1.88;67.84;102043.88;5095450;27;67105;-61
2022/01/16 06:32:07;;;;;;;;;59.00;44.25;;;;;1.87;67.62;102062.91;5077312;27;71513;-64
2022/01/16 06:34:33;;;;;;;;;63.00;46.50;;;;;1.83;67.89;102066.47;5097428;27;45247;-62
2022/01/16 06:36:58;;;;;;;;;63.75;42.75;;;;;1.83;68.07;102076.84;5081171;27;61348;-62
2022/01/16 06:39:23;;;;;;;;;63.50;48.50;;;;;1.83;68.35;102079.44;5081007;27;68395;-63
2022/01/16 06:41:49;;;;;;;;;68.25;45.75;;;;;1.85;68.39;102061.25;5099909;27;46437;-60
2022/01/16 06:44:14;;;;;;;;;61.00;46.00;;;;;1.86;68.20;102078.47;5099945;27;45336;-62
2022/01/16 06:46:40;;;;;;;;;73.50;51.50;;;;;1.86;68.30;102076.75;5081610;27;45863;-62
2022/01/16 06:49:06;;;;;;;;;59.25;43.00;;;;;1.87;68.18;102080.19;5099905;27;45520;-62
2022/01/16 06:51:31;;;;;;;;;70.00;45.75;;;;;1.88;68.42;102084.47;5099840;27;46222;-62
2022/01/16 06:53:57;;;;;;;;;68.50;47.75;;;;;1.86;68.43;102094.03;5080951;27;58766;-60
2022/01/16 06:56:22;;;;;;;;;67.25;45.25;;;;;1.86;68.50;102083.66;5081563;27;45349;-63
2022/01/16 06:58:48;;;;;;;;;69.50;47.75;;;;;1.87;68.65;102104.38;5064739;27;45258;-62
2022/01/16 07:01:13;;;;;;;;;67.50;43.75;;;;;1.87;68.63;102103.50;5099615;27;46300;-62
2022/01/16 07:03:39;;;;;;;;;56.50;42.00;;;;;1.85;68.88;102102.75;5064368;27;45276;-63
2022/01/16 07:06:05;;;;;;;;;63.75;42.75;;;;;1.83;68.63;102097.56;5081561;27;45287;-62
2022/01/16 07:08:30;;;;;;;;;70.75;47.50;;;;;1.83;68.87;102102.75;5081208;27;45470;-62
2022/01/16 07:10:56;;;;;;;;;66.00;45.00;;;;;1.83;68.98;102109.69;5063182;27;75389;-62
2022/01/16 07:13:22;;;;;;;;;63.25;42.00;;;;;1.83;69.11;102104.50;5099305;27;45694;-62
2022/01/16 07:15:48;;;;;;;;;68.25;46.00;;;;;1.80;69.19;102110.63;5099521;27;45381;-64
2022/01/16 07:18:14;;;;;;;;;64.50;42.00;;;;;1.81;68.94;102127.03;5099344;27;45466;-61
2022/01/16 07:20:39;;;;;;;;;69.00;47.25;;;;;1.80;69.37;102131.34;5080511;27;51258;-62
2022/01/16 07:23:05;;;;;;;;;61.00;43.50;;;;;1.82;69.34;102136.50;5098086;27;72066;-63
2022/01/16 07:25:30;;;;;;;;;64.75;42.25;;;;;1.81;69.32;102132.22;5080993;27;45363;-64
2022/01/16 07:27:56;;;;;;;;;59.00;39.75;;;;;1.82;69.20;102129.56;5098162;27;69375;-61
2022/01/16 07:30:21;;;;;;;;;63.75;44.50;;;;;1.83;69.51;102140.81;5097606;27;69398;-63
2022/01/16 07:32:46;;;;;;;;;64.75;43.75;;;;;1.82;69.65;102133.91;5098767;27;45354;-62
2022/01/16 07:35:12;;;;;;;;;67.50;44.25;;;;;1.84;69.37;102126.97;5098007;27;61228;-64
2022/01/16 07:37:37;;;;;;;;;67.25;45.75;;;;;1.82;69.47;102123.56;5079941;27;62140;-60
2022/01/16 07:40:03;;;;;;;;;61.50;41.50;;;;;1.80;69.89;102131.34;5098037;27;64709;-61
2022/01/16 07:42:28;;;;;;;;;55.50;44.50;;;;;1.79;69.86;102147.78;5080462;27;45463;-61
2022/01/16 07:44:54;;;;;;;;;61.00;39.50;;;;;1.80;69.81;102154.69;5098687;27;45370;-62
2022/01/16 07:47:19;;;;;;;;;60.75;44.25;;;;;1.80;70.13;102146.91;5061862;27;69065;-61
2022/01/16 07:49:45;;;;;;;;;55.25;44.25;;;;;1.82;70.29;102134.75;5098614;27;45418;-63
2022/01/16 07:52:10;;;;;;;;;57.75;41.50;;;;;1.84;70.04;102142.50;5079204;27;70638;-62
2022/01/16 07:54:35;;;;;;;;;58.00;40.00;;;;;1.88;69.87;102144.97;5098544;27;45631;-62
2022/01/16 07:57:02;;;;;;;;;63.50;41.75;;;;;1.88;69.98;102144.09;5097886;27;66004;-62
2022/01/16 07:59:28;;;;;;;;;58.00;41.75;;;;;1.91;69.79;102139.69;5098521;27;45314;-62
2022/01/16 08:01:53;;;;;;;;;54.75;40.25;;;;;1.90;70.10;102131.94;5079094;27;73328;-61
2022/01/16 08:04:18;;;;;;;;;59.00;39.00;;;;;1.89;70.13;102127.66;5097987;27;62467;-62
2022/01/16 08:06:44;;;;;;;;;56.75;39.00;;;;;1.88;70.11;102124.22;5098469;27;45432;-62
2022/01/16 08:09:09;;;;;;;;;63.75;40.75;;;;;1.89;70.18;102131.13;5062038;27;71464;-61
2022/01/16 08:11:35;;;;;;;;;50.75;34.50;;;;;1.90;70.30;102137.13;5097984;27;50416;-63
2022/01/16 08:14:00;;;;;;;;;60.00;39.50;;;;;1.89;70.28;102133.72;5097577;27;68687;-62
2022/01/16 08:16:26;;;;;;;;;48.75;35.75;;;;;1.88;70.09;102142.38;5080079;27;45386;-63
2022/01/16 08:18:51;;;;;;;;;67.25;51.00;;;;;1.87;70.55;102153.63;5098287;27;47119;-62
2022/01/16 08:21:17;;;;;;;;;48.50;35.50;;;;;1.88;70.68;102152.75;5079122;27;69643;-62
2022/01/16 08:23:42;;;;;;;;;40.25;31.25;;;;;1.88;70.60;102152.75;5098147;27;46017;-62
2022/01/16 08:26:08;;;;;;;;;42.25;35.00;;;;;1.90;70.45;102150.97;5079930;27;45465;-64
2022/01/16 08:28:33;;;;;;;;;56.75;41.50;;;;;1.91;70.45;102150.06;5098038;27;45578;-62
2022/01/16 08:30:58;;;;;;;;;52.25;35.25;;;;;1.88;70.59;102149.28;5098189;27;45967;-62
2022/01/16 08:33:24;;;;;;;;;51.75;39.50;;;;;1.87;70.60;102153.63;5097951;27;45257;-63
2022/01/16 08:35:49;;;;;;;;;57.75;36.00;;;;;1.86;70.81;102151.94;5097675;27;45276;-63
2022/01/16 08:38:14;;;;;;;;;55.75;33.25;;;;;1.86;70.69;102143.28;5079272;27;45358;-63
2022/01/16 08:40:40;;;;;;;;;50.50;35.50;;;;;1.87;70.81;102145.00;5078647;27;66690;-62
2022/01/16 08:43:11;;;;;;;;;48.75;31.75;;;;;1.86;70.71;102143.28;5097668;27;45299;-62
2022/01/16 08:45:37;;;;;;;;;50.50;28.50;;;;;1.87;70.99;102147.59;5097968;27;45343;-61
2022/01/16 08:48:03;;;;;;;;;43.00;30.00;;;;;1.87;70.76;102153.63;5062723;27;46234;-62
2022/01/16 08:50:28;;;;;;;;;35.50;23.00;;;;;1.88;70.35;102155.34;5079712;27;45413;-62
2022/01/16 08:52:54;;;;;;;;;52.25;32.50;;;;;1.87;70.67;102155.34;5061464;27;64931;-61
2022/01/16 08:55:19;;;;;;;;;36.75;28.00;;;;;1.86;70.91;102151.06;5096988;27;62421;-62
2022/01/16 08:57:44;;;;;;;;;54.50;32.25;;;;;1.85;70.94;102160.59;5095689;27;69934;-63
2022/01/16 09:00:10;;;;;;;;;39.25;30.00;;;;;1.85;71.01;102160.59;5096393;27;65681;-62
2022/01/16 09:02:35;;;;;;;;;57.25;38.75;;;;;1.83;71.19;102154.59;5079624;27;45416;-62
2022/01/16 09:05:01;;;;;;;;;57.25;39.00;;;;;1.85;71.46;102168.38;5079392;27;45662;-61
2022/01/16 09:07:27;;;;;;;;;45.00;32.25;;;;;1.85;71.38;102176.16;5097387;27;45370;-62
2022/01/16 09:09:53;;;;;;;;;54.00;31.50;;;;;1.88;71.16;102182.97;5097349;27;45230;-61
2022/01/16 09:12:18;;;;;;;;;44.75;32.75;;;;;1.87;71.42;102176.97;5096235;27;59127;-63
2022/01/16 09:14:43;;;;;;;;;43.50;33.25;;;;;1.88;71.71;102188.16;5097519;27;45517;-61
2022/01/16 09:17:09;;;;;;;;;48.25;32.50;;;;;1.90;71.77;102184.66;5096231;27;72355;-63
2022/01/16 09:19:34;;;;;;;;;40.75;32.75;;;;;1.94;71.60;102190.59;5096435;27;61718;-63
2022/01/16 09:22:00;;;;;;;;;42.25;30.50;;;;;1.97;71.90;102211.25;5097189;27;45801;-60
2022/01/16 09:24:25;;;;;;;;;36.00;29.75;;;;;2.00;71.93;102206.00;5097217;27;45354;-62
2022/01/16 09:26:54;;;;;;;;;42.25;32.50;;;;;2.03;71.74;102194.72;5096491;27;55608;-63
2022/01/16 09:29:20;;;;;;;;;48.25;34.75;;;;;2.05;71.96;102198.13;5078998;27;45297;-62
2022/01/16 09:31:45;;;;;;;;;44.00;35.25;;;;;2.05;72.13;102193.78;5096975;27;45311;-63
2022/01/16 09:34:10;;;;;;;;;45.75;36.50;;;;;2.08;72.30;102188.50;5096296;27;62224;-63
2022/01/16 09:36:37;;;;;;;;;54.50;38.75;;;;;2.12;72.33;102199.66;5095903;27;71321;-64
2022/01/16 09:39:02;;;;;;;;;44.00;33.50;;;;;2.17;72.17;102202.13;5097011;27;45744;-61
2022/01/16 09:41:28;;;;;;;;;45.00;31.00;;;;;2.16;72.33;102200.44;5095513;27;57383;-60
2022/01/16 09:43:54;;;;;;;;;51.25;34.75;;;;;2.15;72.38;102209.94;5095475;27;61582;-62
2022/01/16 09:46:20;;;;;;;;;52.50;31.50;;;;;2.19;72.26;102211.56;5061308;27;45408;-63
2022/01/16 09:48:45;;;;;;;;;78.25;59.00;;;;;2.20;72.24;102210.69;5095279;27;73069;-62
2022/01/16 09:51:10;;;;;;;;;77.75;58.25;;;;;2.25;72.24;102204.53;5078747;27;45482;-64
2022/01/16 09:53:36;;;;;;;;;57.50;38.00;;;;;2.28;72.49;102205.31;5096054;27;60677;-62
2022/01/16 09:56:02;;;;;;;;;56.75;37.75;;;;;2.30;72.66;102192.28;5078092;27;47545;-63
2022/01/16 09:58:27;;;;;;;;;49.00;38.25;;;;;2.35;72.48;102205.97;5096230;27;45314;-63
2022/01/16 10:00:52;;;;;;;;;43.50;34.00;;;;;2.38;72.42;102218.88;5096504;27;45489;-63
2022/01/16 10:03:44;;;;;;;;;48.25;31.75;;;;;2.46;72.66;102218.66;5078584;27;45593;-63
2022/01/16 10:06:12;;;;;;;;;41.75;33.75;;;;;2.52;72.19;102214.16;5096641;27;46387;-61
2022/01/16 10:08:39;;;;;;;;;34.25;27.00;;;;;2.56;71.99;102214.91;5096529;27;45790;-63
2022/01/16 10:11:27;;;;;;;;;37.00;29.50;;;;;2.65;72.07;102226.81;5099127;27;45345;-62
2022/01/16 10:13:59;;;;;;;;;35.00;26.75;;;;;2.68;71.69;102216.31;5081300;27;45399;-64
2022/01/16 10:16:32;;;;;;;;;35.50;26.00;;;;;2.77;71.65;102213.47;5081784;27;46158;-63
2022/01/16 10:18:58;;;;;;;;;32.00;24.00;;;;;2.87;72.02;102208.88;5099010;27;45854;-61
2022/01/16 10:21:32;;;;;;;;;39.75;30.00;;;;;3.05;71.57;102204.88;5080871;27;45388;-63
2022/01/16 10:23:57;;;;;;;;;40.00;28.50;;;;;3.20;70.67;102202.69;5099063;27;45572;-62
2022/01/16 10:26:22;;;;;;;;;29.00;25.75;;;;;3.36;70.44;102210.88;5098642;27;73289;-63
2022/01/16 10:28:49;;;;;;;;;30.25;25.25;;;;;3.53;70.30;102197.34;5081190;27;45535;-63
2022/01/16 10:31:19;;;;;;;;;34.00;25.00;;;;;3.68;69.69;102196.00;5081022;27;45357;-62
2022/01/16 10:33:45;;;;;;;;;29.75;25.75;;;;;3.79;69.04;102203.44;5098876;27;45359;-63
2022/01/16 10:36:10;;;;;;;;;30.50;23.00;;;;;3.84;68.58;102209.34;5097999;27;67501;-62
2022/01/16 10:38:35;;;;;;;;;32.50;26.25;;;;;3.90;68.35;102221.31;5079592;27;69480;-63
2022/01/16 10:41:01;;;;;;;;;32.50;27.25;;;;;3.92;68.41;102217.75;5098894;27;45324;-62
2022/01/16 10:43:42;;;;;;;;;34.75;24.75;;;;;4.01;68.32;102225.25;5080763;27;45523;-62
2022/01/16 10:46:08;;;;;;;;;38.50;24.75;;;;;4.15;68.09;102219.56;5098682;27;50623;-65
2022/01/16 10:48:34;;;;;;;;;41.25;29.75;;;;;4.26;67.89;102221.78;5080373;27;45248;-61
2022/01/16 10:51:00;;;;;;;;;37.75;27.00;;;;;4.40;67.90;102223.06;5080443;27;45634;-61
2022/01/16 10:53:27;;;;;;;;;38.75;27.50;;;;;4.50;66.82;102226.22;5063915;27;45445;-63
2022/01/16 10:55:52;;;;;;;;;36.25;28.50;;;;;4.55;67.26;102216.47;5063393;27;46312;-63
2022/01/16 10:58:25;;;;;;;;;33.00;23.00;;;;;4.59;66.85;102211.09;5099191;27;45404;-63
2022/01/16 11:00:59;;;;;;;;;33.00;23.50;;;;;4.63;66.27;102206.63;5081041;27;45408;-62
2022/01/16 11:03:26;;;;;;;;;36.50;24.75;;;;;4.62;66.02;102204.91;5081786;27;45546;-61
2022/01/16 11:05:51;;;;;;;;;30.75;25.25;;;;;4.62;65.61;102210.13;5098354;27;46456;-62
2022/01/16 11:08:18;;;;;;;;;38.50;30.00;;;;;4.59;65.96;102200.69;5099062;27;45406;-63
2022/01/16 11:10:45;;;;;;;;;32.00;27.75;;;;;4.54;65.66;102202.59;5047525;27;45395;-63
2022/01/16 11:13:12;;;;;;;;;34.25;29.50;;;;;4.48;65.46;102195.00;5081091;27;45252;-63
2022/01/16 11:15:39;;;;;;;;;39.25;31.25;;;;;4.47;65.85;102190.72;5098689;27;50795;-63
2022/01/16 11:18:06;;;;;;;;;36.00;29.25;;;;;4.51;65.96;102194.91;5099136;27;45322;-63
2022/01/16 11:20:34;;;;;;;;;37.00;25.00;;;;;4.54;65.81;102194.78;5080292;27;45283;-61
2022/01/16 11:23:02;;;;;;;;;46.00;30.50;;;;;4.57;66.08;102192.09;5080423;27;45363;-62
2022/01/16 11:25:34;;;;;;;;;41.00;30.00;;;;;4.59;66.19;102192.00;5080036;27;46178;-62
2022/01/16 11:28:19;;;;;;;;;37.50;31.50;;;;;4.60;65.88;102186.75;5080774;27;45368;-63
2022/01/16 11:30:47;;;;;;;;;36.00;30.50;;;;;4.60;65.92;102186.75;5097594;27;45442;-62
2022/01/16 11:33:14;;;;;;;;;43.50;34.00;;;;;4.64;65.87;102176.25;5080304;27;45195;-62
2022/01/16 11:35:48;;;;;;;;;38.00;31.25;;;;;4.68;65.93;102177.81;5063990;27;46403;-63
2022/01/16 11:38:14;;;;;;;;;31.75;27.50;;;;;4.73;65.88;102192.34;5098850;27;45375;-62
2022/01/16 11:40:45;;;;;;;;;42.50;32.00;;;;;4.80;66.03;102187.75;5063463;27;45423;-64
2022/01/16 11:43:49;;;;;;;;;45.00;35.25;;;;;4.92;65.76;102183.00;5081314;27;45238;-61
2022/01/16 11:46:21;;;;;;;;;47.00;34.75;;;;;5.01;65.86;102186.13;4995667;28;46699;-62
2022/01/16 11:48:47;;;;;;;;;35.50;27.50;;;;;5.13;65.92;102184.78;4995794;28;45380;-61
2022/01/16 11:51:35;;;;;;;;;40.50;29.25;;;;;5.29;65.51;102178.97;5047656;27;45373;-64